createdAt,value
2023-02-11T00:00:01.220Z,30.29
2023-02-11T00:00:31.237Z,30.32
2023-02-11T00:01:01.273Z,30.32
2023-02-11T00:01:31.305Z,30.30
2023-02-11T00:02:01.399Z,30.27
2023-02-11T00:02:31.535Z,30.34
2023-02-11T00:03:01.551Z,30.34
2023-02-11T00:03:31.526Z,30.37
2023-02-11T00:04:01.587Z,30.41
2023-02-11T00:04:31.674Z,30.35
2023-02-11T00:05:01.774Z,30.37
2023-02-11T00:05:31.857Z,30.38
2023-02-11T00:06:01.967Z,30.38
2023-02-11T00:06:32.035Z,30.47
2023-02-11T00:07:02.494Z,30.41
2023-02-11T00:07:32.244Z,30.40
2023-02-11T00:08:02.306Z,30.46
2023-02-11T00:08:32.413Z,30.39
2023-02-11T00:09:02.491Z,30.44
2023-02-11T00:09:32.565Z,30.49
2023-02-11T00:10:02.641Z,30.53
2023-02-11T00:10:32.728Z,30.46
2023-02-11T00:11:02.804Z,30.49
2023-02-11T00:11:32.896Z,30.47
2023-02-11T00:12:02.989Z,30.46
2023-02-11T00:12:33.062Z,30.51
2023-02-11T00:13:03.155Z,30.48
2023-02-11T00:13:33.232Z,30.47
2023-02-11T00:14:03.324Z,30.53
2023-02-11T00:14:33.391Z,30.58
2023-02-11T00:15:03.504Z,30.51
2023-02-11T00:15:33.571Z,30.51
2023-02-11T00:16:03.664Z,30.47
2023-02-11T00:16:33.830Z,30.48
2023-02-11T00:17:03.903Z,30.42
2023-02-11T00:17:33.775Z,30.47
2023-02-11T00:18:03.863Z,30.50
2023-02-11T00:18:33.968Z,30.48
2023-02-11T00:19:04.040Z,30.50
2023-02-11T00:19:34.118Z,30.54
2023-02-11T00:20:06.581Z,30.54
2023-02-11T00:20:34.272Z,30.51
2023-02-11T00:21:04.366Z,30.48
2023-02-11T00:21:34.469Z,30.48
2023-02-11T00:22:04.536Z,30.48
2023-02-11T00:22:34.620Z,30.53
2023-02-11T00:23:04.711Z,30.50
2023-02-11T00:23:34.822Z,30.48
2023-02-11T00:24:04.889Z,30.53
2023-02-11T00:24:34.957Z,30.51
2023-02-11T00:25:05.048Z,30.48
2023-02-11T00:25:35.120Z,30.54
2023-02-11T00:26:05.250Z,30.44
2023-02-11T00:26:35.305Z,30.53
2023-02-11T00:27:05.391Z,30.51
2023-02-11T00:27:35.480Z,30.53
2023-02-11T00:28:05.612Z,30.49
2023-02-11T00:28:35.677Z,30.42
2023-02-11T00:29:05.657Z,30.41
2023-02-11T00:29:35.736Z,30.46
2023-02-11T00:30:05.825Z,30.41
2023-02-11T00:30:36.087Z,30.41
2023-02-11T00:31:06.088Z,30.36
2023-02-11T00:31:36.361Z,30.41
2023-02-11T00:32:05.998Z,30.42
2023-02-11T00:32:36.105Z,30.47
2023-02-11T00:33:06.161Z,30.48
2023-02-11T00:33:36.247Z,30.39
2023-02-11T00:34:06.329Z,30.51
2023-02-11T00:34:36.431Z,30.48
2023-02-11T00:35:06.501Z,30.50
2023-02-11T00:35:36.583Z,30.42
2023-02-11T00:36:06.666Z,30.51
2023-02-11T00:36:36.763Z,30.48
2023-02-11T00:37:06.841Z,30.51
2023-02-11T00:37:36.924Z,30.53
2023-02-11T00:38:07.022Z,30.53
2023-02-11T00:38:37.110Z,30.51
2023-02-11T00:39:07.176Z,30.49
2023-02-11T00:39:37.263Z,30.44
2023-02-11T00:40:07.342Z,30.45
2023-02-11T00:40:37.421Z,30.45
2023-02-11T00:41:07.504Z,30.48
2023-02-11T00:41:37.587Z,30.52
2023-02-11T00:42:07.679Z,30.53
2023-02-11T00:42:37.762Z,30.53
2023-02-11T00:43:07.858Z,30.51
2023-02-11T00:43:37.937Z,30.47
2023-02-11T00:44:08.028Z,30.50
2023-02-11T00:44:38.103Z,30.48
2023-02-11T00:45:08.187Z,30.47
2023-02-11T00:45:38.261Z,30.45
2023-02-11T00:46:08.460Z,30.47
2023-02-11T00:46:38.414Z,30.39
2023-02-11T00:47:08.369Z,30.44
2023-02-11T00:47:38.448Z,30.43
2023-02-11T00:48:08.533Z,30.41
2023-02-11T00:48:38.619Z,30.41
2023-02-11T00:49:08.703Z,30.42
2023-02-11T00:49:38.775Z,30.38
2023-02-11T00:50:08.853Z,30.40
2023-02-11T00:50:38.955Z,30.41
2023-02-11T00:51:09.038Z,30.38
2023-02-11T00:51:39.119Z,30.41
2023-02-11T00:52:09.206Z,30.40
2023-02-11T00:52:39.288Z,30.32
2023-02-11T00:53:09.378Z,30.38
2023-02-11T00:53:39.522Z,30.35
2023-02-11T00:54:09.540Z,30.36
2023-02-11T00:54:39.583Z,30.36
2023-02-11T00:55:09.622Z,30.34
2023-02-11T00:55:39.662Z,30.38
2023-02-11T00:56:09.697Z,30.35
2023-02-11T00:56:39.743Z,30.36
2023-02-11T00:57:09.785Z,30.40
2023-02-11T00:57:39.815Z,30.41
2023-02-11T00:58:09.868Z,30.41
2023-02-11T00:58:39.914Z,30.34
2023-02-11T00:59:09.950Z,30.32
2023-02-11T00:59:39.978Z,30.34
2023-02-11T01:00:10.044Z,30.34
2023-02-11T01:00:40.076Z,30.37
2023-02-11T01:01:10.207Z,30.38
2023-02-11T01:01:40.220Z,30.36
2023-02-11T01:02:10.231Z,30.34
2023-02-11T01:02:40.282Z,30.36
2023-02-11T01:03:10.330Z,30.34
2023-02-11T01:03:40.375Z,30.37
2023-02-11T01:04:10.432Z,30.34
2023-02-11T01:04:40.516Z,30.32
2023-02-11T01:05:10.638Z,30.32
2023-02-11T01:05:40.737Z,30.34
2023-02-11T01:06:10.793Z,30.29
2023-02-11T01:06:40.868Z,30.31
2023-02-11T01:07:10.957Z,30.26
2023-02-11T01:07:41.048Z,30.29
2023-02-11T01:08:11.125Z,30.25
2023-02-11T01:08:41.202Z,30.26
2023-02-11T01:09:11.325Z,30.28
2023-02-11T01:09:41.408Z,30.30
2023-02-11T01:10:11.476Z,30.30
2023-02-11T01:10:41.573Z,30.27
2023-02-11T01:11:11.641Z,30.24
2023-02-11T01:11:41.724Z,30.28
2023-02-11T01:12:11.812Z,30.27
2023-02-11T01:12:41.920Z,30.24
2023-02-11T01:13:12.002Z,30.19
2023-02-11T01:13:42.080Z,30.22
2023-02-11T01:14:12.191Z,30.26
2023-02-11T01:14:42.268Z,30.21
2023-02-11T01:15:12.349Z,30.18
2023-02-11T01:15:42.444Z,30.23
2023-02-11T01:16:12.575Z,30.15
2023-02-11T01:16:42.547Z,30.15
2023-02-11T01:17:12.640Z,30.16
2023-02-11T01:17:42.767Z,30.21
2023-02-11T01:18:12.832Z,30.13
2023-02-11T01:18:42.929Z,30.16
2023-02-11T01:19:13.014Z,30.15
2023-02-11T01:19:43.101Z,30.10
2023-02-11T01:20:13.171Z,30.13
2023-02-11T01:20:43.260Z,30.15
2023-02-11T01:21:13.359Z,30.13
2023-02-11T01:21:43.432Z,30.18
2023-02-11T01:22:13.512Z,30.13
2023-02-11T01:22:43.617Z,30.18
2023-02-11T01:23:13.705Z,30.13
2023-02-11T01:23:43.794Z,30.18
2023-02-11T01:24:13.892Z,30.21
2023-02-11T01:24:43.948Z,30.19
2023-02-11T01:25:14.042Z,30.18
2023-02-11T01:25:44.120Z,30.19
2023-02-11T01:26:14.201Z,30.21
2023-02-11T01:26:44.287Z,30.19
2023-02-11T01:27:14.375Z,30.19
2023-02-11T01:27:44.485Z,30.24
2023-02-11T01:28:14.509Z,30.21
2023-02-11T01:28:44.458Z,30.21
2023-02-11T01:29:14.565Z,30.24
2023-02-11T01:29:44.647Z,30.18
2023-02-11T01:30:14.748Z,30.19
2023-02-11T01:30:44.884Z,30.21
2023-02-11T01:31:14.998Z,30.19
2023-02-11T01:31:45.010Z,30.21
2023-02-11T01:32:15.107Z,30.16
2023-02-11T01:32:45.187Z,30.21
2023-02-11T01:33:15.274Z,30.19
2023-02-11T01:33:45.351Z,30.24
2023-02-11T01:34:15.425Z,30.19
2023-02-11T01:34:45.514Z,30.20
2023-02-11T01:35:15.603Z,30.28
2023-02-11T01:35:45.680Z,30.25
2023-02-11T01:36:15.768Z,30.25
2023-02-11T01:36:45.854Z,30.25
2023-02-11T01:37:15.937Z,30.24
2023-02-11T01:37:46.046Z,30.27
2023-02-11T01:38:16.124Z,30.27
2023-02-11T01:38:46.208Z,30.26
2023-02-11T01:39:16.327Z,30.28
2023-02-11T01:39:46.387Z,30.25
2023-02-11T01:40:16.464Z,30.29
2023-02-11T01:40:46.542Z,30.27
2023-02-11T01:41:16.639Z,30.28
2023-02-11T01:41:46.713Z,30.26
2023-02-11T01:42:16.819Z,30.29
2023-02-11T01:42:48.821Z,30.27
2023-02-11T01:43:16.891Z,30.34
2023-02-11T01:43:46.982Z,30.29
2023-02-11T01:44:17.075Z,30.34
2023-02-11T01:44:47.158Z,30.28
2023-02-11T01:45:17.236Z,30.32
2023-02-11T01:45:47.355Z,30.35
2023-02-11T01:46:17.507Z,30.29
2023-02-11T01:46:47.566Z,30.34
2023-02-11T01:47:17.546Z,30.31
2023-02-11T01:47:47.641Z,30.25
2023-02-11T01:48:17.726Z,30.25
2023-02-11T01:48:47.896Z,30.27
2023-02-11T01:49:17.933Z,30.22
2023-02-11T01:49:47.900Z,30.28
2023-02-11T01:50:17.974Z,30.25
2023-02-11T01:50:48.051Z,30.28
2023-02-11T01:51:18.138Z,30.29
2023-02-11T01:51:48.226Z,30.22
2023-02-11T01:52:18.304Z,30.21
2023-02-11T01:52:48.396Z,30.24
2023-02-11T01:53:18.477Z,30.29
2023-02-11T01:53:48.566Z,30.18
2023-02-11T01:54:18.608Z,30.21
2023-02-11T01:54:48.680Z,30.29
2023-02-11T01:55:18.673Z,30.27
2023-02-11T01:56:27.831Z,30.22
2023-02-11T01:56:57.886Z,30.24
2023-02-11T01:57:27.920Z,30.24
2023-02-11T01:57:57.958Z,30.19
2023-02-11T01:58:27.981Z,30.19
2023-02-11T01:58:58.041Z,30.13
2023-02-11T01:59:28.082Z,30.18
2023-02-11T01:59:58.139Z,30.12
2023-02-11T02:00:28.153Z,30.20
2023-02-11T02:00:58.218Z,30.15
2023-02-11T02:01:28.288Z,30.12
2023-02-11T02:01:58.447Z,30.19
2023-02-11T02:02:28.383Z,30.19
2023-02-11T02:02:58.432Z,30.22
2023-02-11T02:03:28.508Z,30.21
2023-02-11T02:03:58.663Z,30.19
2023-02-11T02:04:28.584Z,30.16
2023-02-11T02:04:58.637Z,30.22
2023-02-11T02:05:28.683Z,30.22
2023-02-11T02:05:58.713Z,30.24
2023-02-11T02:06:28.797Z,30.18
2023-02-11T02:06:58.886Z,30.15
2023-02-11T02:07:28.959Z,30.13
2023-02-11T02:07:59.052Z,30.13
2023-02-11T02:08:29.142Z,30.15
2023-02-11T02:08:59.214Z,30.15
2023-02-11T02:09:29.300Z,30.22
2023-02-11T02:09:59.399Z,30.16
2023-02-11T02:10:29.448Z,30.20
2023-02-11T02:10:59.534Z,30.15
2023-02-11T02:11:29.626Z,30.15
2023-02-11T02:11:59.708Z,30.15
2023-02-11T02:12:29.796Z,30.12
2023-02-11T02:12:59.892Z,30.15
2023-02-11T02:13:29.986Z,30.15
2023-02-11T02:14:00.086Z,30.17
2023-02-11T02:14:30.204Z,30.10
2023-02-11T02:15:00.189Z,30.12
2023-02-11T02:15:30.270Z,30.11
2023-02-11T02:16:00.447Z,30.03
2023-02-11T02:16:30.479Z,30.08
2023-02-11T02:17:00.458Z,30.02
2023-02-11T02:17:30.544Z,30.07
2023-02-11T02:18:00.628Z,30.04
2023-02-11T02:18:30.705Z,30.08
2023-02-11T02:19:00.789Z,29.99
2023-02-11T02:19:30.887Z,30.03
2023-02-11T02:20:00.971Z,30.02
2023-02-11T02:20:31.054Z,30.01
2023-02-11T02:21:01.154Z,30.03
2023-02-11T02:21:31.219Z,29.97
2023-02-11T02:22:01.306Z,30.05
2023-02-11T02:22:31.385Z,30.05
2023-02-11T02:23:01.516Z,30.04
2023-02-11T02:23:31.586Z,30.05
2023-02-11T02:24:01.671Z,30.03
2023-02-11T02:24:31.755Z,30.04
2023-02-11T02:25:01.864Z,30.05
2023-02-11T02:25:31.920Z,30.04
2023-02-11T02:26:02.006Z,30.07
2023-02-11T02:26:32.098Z,30.04
2023-02-11T02:27:02.177Z,30.02
2023-02-11T02:27:32.263Z,30.04
2023-02-11T02:28:02.415Z,29.99
2023-02-11T02:28:32.436Z,30.02
2023-02-11T02:29:02.442Z,30.01
2023-02-11T02:29:32.514Z,30.04
2023-02-11T02:30:02.598Z,30.00
2023-02-11T02:30:32.711Z,30.05
2023-02-11T02:31:02.917Z,30.02
2023-02-11T02:31:33.022Z,30.04
2023-02-11T02:32:02.884Z,30.03
2023-02-11T02:32:32.976Z,30.08
2023-02-11T02:33:20.335Z,30.03
2023-02-11T02:33:33.164Z,30.05
2023-02-11T02:34:03.253Z,30.08
2023-02-11T02:34:33.339Z,30.11
2023-02-11T02:35:03.435Z,30.09
2023-02-11T02:35:33.506Z,30.06
2023-02-11T02:36:03.583Z,30.09
2023-02-11T02:36:33.667Z,30.09
2023-02-11T02:37:03.759Z,30.06
2023-02-11T02:37:33.853Z,30.09
2023-02-11T02:38:03.950Z,30.06
2023-02-11T02:38:34.034Z,30.08
2023-02-11T02:39:04.129Z,30.03
2023-02-11T02:39:34.221Z,30.03
2023-02-11T02:40:04.289Z,30.02
2023-02-11T02:40:34.401Z,30.00
2023-02-11T02:41:04.456Z,30.05
2023-02-11T02:41:34.546Z,30.02
2023-02-11T02:42:04.639Z,30.05
2023-02-11T02:42:34.709Z,30.06
2023-02-11T02:43:04.813Z,30.02
2023-02-11T02:43:34.793Z,30.05
2023-02-11T02:44:04.893Z,30.02
2023-02-11T02:44:34.975Z,30.03
2023-02-11T02:45:05.045Z,30.08
2023-02-11T02:45:35.132Z,30.02
2023-02-11T02:46:05.230Z,29.99
2023-02-11T02:46:35.400Z,29.97
2023-02-11T02:47:05.375Z,30.02
2023-02-11T02:47:35.457Z,30.02
2023-02-11T02:48:05.560Z,30.02
2023-02-11T02:48:35.648Z,30.00
2023-02-11T02:49:05.724Z,30.00
2023-02-11T02:49:35.805Z,30.02
2023-02-11T02:50:05.897Z,29.97
2023-02-11T02:50:35.976Z,30.02
2023-02-11T02:51:06.065Z,30.03
2023-02-11T02:51:36.146Z,30.02
2023-02-11T02:52:06.222Z,29.99
2023-02-11T02:52:36.313Z,30.02
2023-02-11T02:53:06.414Z,30.03
2023-02-11T02:53:36.500Z,30.07
2023-02-11T02:54:06.579Z,30.04
2023-02-11T02:54:36.661Z,29.99
2023-02-11T02:55:06.750Z,30.02
2023-02-11T02:55:36.826Z,29.97
2023-02-11T02:56:06.925Z,30.03
2023-02-11T02:56:36.931Z,30.04
2023-02-11T02:57:06.976Z,30.05
2023-02-11T02:57:37.016Z,30.00
2023-02-11T02:58:07.090Z,30.02
2023-02-11T02:58:37.141Z,30.01
2023-02-11T02:59:07.157Z,29.97
2023-02-11T02:59:37.202Z,30.01
2023-02-11T03:00:07.245Z,30.02
2023-02-11T03:00:37.393Z,29.93
2023-02-11T03:01:07.477Z,29.98
2023-02-11T03:01:37.522Z,29.96
2023-02-11T03:02:07.553Z,29.96
2023-02-11T03:02:37.614Z,29.96
2023-02-11T03:03:07.659Z,29.94
2023-02-11T03:03:37.706Z,29.93
2023-02-11T03:04:07.807Z,29.97
2023-02-11T03:04:37.850Z,29.98
2023-02-11T03:05:07.880Z,29.98
2023-02-11T03:05:37.915Z,29.98
2023-02-11T03:06:07.977Z,29.96
2023-02-11T03:06:38.058Z,29.94
2023-02-11T03:07:08.140Z,29.99
2023-02-11T03:07:38.227Z,29.94
2023-02-11T03:08:08.335Z,29.96
2023-02-11T03:08:38.399Z,29.96
2023-02-11T03:09:11.131Z,30.02
2023-02-11T03:09:38.594Z,29.99
2023-02-11T03:10:08.671Z,30.02
2023-02-11T03:10:38.755Z,30.04
2023-02-11T03:11:08.842Z,30.04
2023-02-11T03:11:38.952Z,30.03
2023-02-11T03:12:09.025Z,30.02
2023-02-11T03:12:39.103Z,30.06
2023-02-11T03:13:09.208Z,30.02
2023-02-11T03:13:39.302Z,30.02
2023-02-11T03:14:09.391Z,30.01
2023-02-11T03:14:39.466Z,29.96
2023-02-11T03:15:09.553Z,30.02
2023-02-11T03:15:39.638Z,29.97
2023-02-11T03:16:09.858Z,30.01
2023-02-11T03:16:39.920Z,29.98
2023-02-11T03:17:09.830Z,29.96
2023-02-11T03:17:39.900Z,29.98
2023-02-11T03:18:09.986Z,29.94
2023-02-11T03:18:40.059Z,29.97
2023-02-11T03:19:10.146Z,29.91
2023-02-11T03:19:40.230Z,29.90
2023-02-11T03:20:10.315Z,29.94
2023-02-11T03:20:40.400Z,29.91
2023-02-11T03:21:10.479Z,29.96
2023-02-11T03:21:40.567Z,30.01
2023-02-11T03:22:10.652Z,29.99
2023-02-11T03:22:40.746Z,30.00
2023-02-11T03:23:10.835Z,29.99
2023-02-11T03:23:40.923Z,29.99
2023-02-11T03:24:11.002Z,30.01
2023-02-11T03:24:41.105Z,30.00
2023-02-11T03:25:11.192Z,29.99
2023-02-11T03:25:41.302Z,29.97
2023-02-11T03:26:11.370Z,30.02
2023-02-11T03:26:41.478Z,29.99
2023-02-11T03:27:11.540Z,30.00
2023-02-11T03:27:41.652Z,30.02
2023-02-11T03:28:11.766Z,30.00
2023-02-11T03:28:41.821Z,29.96
2023-02-11T03:29:11.935Z,30.02
2023-02-11T03:29:41.909Z,30.03
2023-02-11T03:30:12.005Z,29.99
2023-02-11T03:30:42.123Z,30.00
2023-02-11T03:31:12.223Z,30.05
2023-02-11T03:31:42.290Z,30.02
2023-02-11T03:32:12.436Z,29.94
2023-02-11T03:32:42.315Z,30.02
2023-02-11T03:33:12.398Z,29.96
2023-02-11T03:33:42.507Z,29.99
2023-02-11T03:34:12.591Z,29.97
2023-02-11T03:34:42.677Z,29.96
2023-02-11T03:35:12.768Z,29.99
2023-02-11T03:35:42.839Z,29.96
2023-02-11T03:36:12.939Z,30.00
2023-02-11T03:36:43.017Z,30.00
2023-02-11T03:37:13.093Z,29.99
2023-02-11T03:37:43.189Z,30.02
2023-02-11T03:38:13.275Z,29.97
2023-02-11T03:38:43.372Z,30.00
2023-02-11T03:39:13.462Z,29.97
2023-02-11T03:39:43.537Z,30.00
2023-02-11T03:40:13.627Z,30.03
2023-02-11T03:40:43.722Z,30.03
2023-02-11T03:41:13.808Z,30.00
2023-02-11T03:41:43.870Z,30.00
2023-02-11T03:42:13.979Z,30.05
2023-02-11T03:42:44.044Z,30.03
2023-02-11T03:43:14.129Z,29.99
2023-02-11T03:43:44.266Z,30.02
2023-02-11T03:44:14.217Z,29.97
2023-02-11T03:44:44.297Z,30.04
2023-02-11T03:45:14.379Z,29.96
2023-02-11T03:45:44.542Z,30.02
2023-02-11T03:46:14.620Z,29.99
2023-02-11T03:46:44.555Z,29.96
2023-02-11T03:47:14.638Z,30.02
2023-02-11T03:47:44.730Z,30.03
2023-02-11T03:48:14.813Z,29.99
2023-02-11T03:48:44.920Z,30.00
2023-02-11T03:49:15.000Z,30.00
2023-02-11T03:49:45.081Z,30.05
2023-02-11T03:50:15.167Z,30.06
2023-02-11T03:50:45.247Z,30.00
2023-02-11T03:51:15.333Z,30.05
2023-02-11T03:51:45.421Z,30.02
2023-02-11T03:52:15.508Z,30.05
2023-02-11T03:52:45.606Z,30.02
2023-02-11T03:53:15.681Z,29.96
2023-02-11T03:53:45.787Z,29.96
2023-02-11T03:54:15.912Z,29.99
2023-02-11T03:54:45.883Z,29.97
2023-02-11T03:55:15.960Z,29.92
2023-02-11T03:55:46.043Z,29.91
2023-02-11T03:56:16.094Z,29.92
2023-02-11T03:56:46.136Z,29.93
2023-02-11T03:57:16.191Z,29.92
2023-02-11T03:57:46.209Z,29.90
2023-02-11T03:58:16.248Z,29.94
2023-02-11T03:58:46.275Z,29.94
2023-02-11T03:59:16.341Z,29.94
2023-02-11T03:59:46.387Z,29.94
2023-02-11T04:00:16.424Z,29.94
2023-02-11T04:00:46.527Z,29.95
2023-02-11T04:01:16.689Z,29.90
2023-02-11T04:01:46.628Z,29.95
2023-02-11T04:02:16.678Z,29.90
2023-02-11T04:02:46.779Z,29.94
2023-02-11T04:03:16.821Z,29.92
2023-02-11T04:03:46.773Z,29.87
2023-02-11T04:04:16.817Z,29.84
2023-02-11T04:04:46.875Z,29.92
2023-02-11T04:05:16.903Z,29.91
2023-02-11T04:05:47.017Z,29.95
2023-02-11T04:06:16.966Z,29.95
2023-02-11T04:06:47.067Z,29.92
2023-02-11T04:07:17.143Z,29.87
2023-02-11T04:07:47.221Z,29.93
2023-02-11T04:08:17.311Z,29.91
2023-02-11T04:08:47.378Z,29.90
2023-02-11T04:09:17.525Z,29.96
2023-02-11T04:09:47.514Z,29.96
2023-02-11T04:10:17.572Z,29.96
2023-02-11T04:10:47.654Z,29.94
2023-02-11T04:11:17.739Z,29.98
2023-02-11T04:11:47.822Z,29.91
2023-02-11T04:12:17.921Z,29.96
2023-02-11T04:12:48.002Z,29.91
2023-02-11T04:13:18.089Z,29.87
2023-02-11T04:13:48.181Z,29.92
2023-02-11T04:14:18.316Z,29.89
2023-02-11T04:14:48.372Z,29.86
2023-02-11T04:15:18.451Z,29.84
2023-02-11T04:15:49.193Z,29.87
2023-02-11T04:16:18.682Z,29.86
2023-02-11T04:16:48.632Z,29.90
2023-02-11T04:17:18.717Z,29.90
2023-02-11T04:17:48.832Z,29.83
2023-02-11T04:18:18.925Z,29.90
2023-02-11T04:18:48.998Z,29.84
2023-02-11T04:19:19.094Z,29.92
2023-02-11T04:19:49.187Z,29.88
2023-02-11T04:20:19.319Z,29.89
2023-02-11T04:20:49.285Z,29.87
2023-02-11T04:21:19.365Z,29.81
2023-02-11T04:21:49.444Z,29.84
2023-02-11T04:22:19.524Z,29.89
2023-02-11T04:22:49.626Z,29.84
2023-02-11T04:23:19.713Z,29.86
2023-02-11T04:23:49.789Z,29.93
2023-02-11T04:24:19.872Z,29.90
2023-02-11T04:24:49.967Z,29.87
2023-02-11T04:25:20.055Z,29.87
2023-02-11T04:25:50.479Z,29.90
2023-02-11T04:26:20.135Z,29.88
2023-02-11T04:26:50.216Z,29.90
2023-02-11T04:27:20.324Z,29.88
2023-02-11T04:27:50.391Z,29.92
2023-02-11T04:28:20.524Z,29.90
2023-02-11T04:28:50.476Z,29.86
2023-02-11T04:29:20.542Z,29.90
2023-02-11T04:29:50.654Z,29.91
2023-02-11T04:30:20.731Z,29.96
2023-02-11T04:30:50.849Z,29.90
2023-02-11T04:31:20.932Z,29.98
2023-02-11T04:31:50.918Z,29.93
2023-02-11T04:32:20.913Z,29.90
2023-02-11T04:32:50.992Z,29.94
2023-02-11T04:33:21.070Z,29.91
2023-02-11T04:33:51.138Z,30.01
2023-02-11T04:34:21.231Z,29.94
2023-02-11T04:34:51.334Z,29.92
2023-02-11T04:35:21.416Z,29.91
2023-02-11T04:35:51.690Z,29.93
2023-02-11T04:36:21.517Z,29.94
2023-02-11T04:36:51.626Z,29.90
2023-02-11T04:37:21.687Z,29.97
2023-02-11T04:37:51.760Z,29.93
2023-02-11T04:38:21.835Z,29.94
2023-02-11T04:38:51.919Z,29.90
2023-02-11T04:39:22.006Z,29.87
2023-02-11T04:39:52.089Z,29.96
2023-02-11T04:40:22.179Z,29.94
2023-02-11T04:40:52.252Z,29.97
2023-02-11T04:41:22.345Z,29.93
2023-02-11T04:41:52.429Z,30.00
2023-02-11T04:42:22.535Z,29.97
2023-02-11T04:42:52.618Z,30.05
2023-02-11T04:43:22.707Z,29.99
2023-02-11T04:43:52.786Z,29.99
2023-02-11T04:44:22.873Z,29.96
2023-02-11T04:44:52.951Z,29.93
2023-02-11T04:45:23.029Z,29.94
2023-02-11T04:45:53.426Z,29.93
2023-02-11T04:46:23.251Z,29.93
2023-02-11T04:46:53.233Z,29.97
2023-02-11T04:47:23.307Z,29.94
2023-02-11T04:47:53.381Z,29.91
2023-02-11T04:48:23.468Z,29.96
2023-02-11T04:48:53.549Z,29.94
2023-02-11T04:49:23.632Z,29.94
2023-02-11T04:49:53.708Z,29.96
2023-02-11T04:50:23.791Z,29.97
2023-02-11T04:50:53.880Z,29.96
2023-02-11T04:51:23.977Z,29.90
2023-02-11T04:51:54.048Z,29.94
2023-02-11T04:52:24.128Z,29.93
2023-02-11T04:52:54.219Z,29.91
2023-02-11T04:53:24.299Z,29.97
2023-02-11T04:53:54.384Z,29.94
2023-02-11T04:54:24.472Z,29.96
2023-02-11T04:54:54.560Z,29.99
2023-02-11T04:55:24.651Z,29.93
2023-02-11T04:55:54.740Z,29.96
2023-02-11T04:56:24.779Z,29.97
2023-02-11T04:56:54.841Z,29.99
2023-02-11T04:57:24.903Z,29.96
2023-02-11T04:57:54.914Z,29.96
2023-02-11T04:58:24.960Z,29.96
2023-02-11T04:58:54.998Z,29.97
2023-02-11T04:59:25.065Z,29.90
2023-02-11T04:59:55.120Z,29.91
2023-02-11T05:00:25.144Z,29.88
2023-02-11T05:00:55.276Z,29.94
2023-02-11T05:01:25.266Z,29.91
2023-02-11T05:01:55.289Z,29.94
2023-02-11T05:02:25.331Z,29.94
2023-02-11T05:02:55.372Z,29.97
2023-02-11T05:03:25.414Z,29.94
2023-02-11T05:03:55.502Z,29.93
2023-02-11T05:04:25.624Z,29.96
2023-02-11T05:04:55.568Z,29.90
2023-02-11T05:05:25.614Z,29.94
2023-02-11T05:05:55.647Z,29.88
2023-02-11T05:06:25.722Z,29.93
2023-02-11T05:06:58.334Z,30.00
2023-02-11T05:07:25.911Z,29.94
2023-02-11T05:07:55.990Z,29.90
2023-02-11T05:08:26.072Z,29.95
2023-02-11T05:08:56.157Z,29.90
2023-02-11T05:09:26.248Z,29.84
2023-02-11T05:09:56.365Z,29.86
2023-02-11T05:10:26.434Z,29.83
2023-02-11T05:10:56.531Z,29.81
2023-02-11T05:11:26.618Z,29.84
2023-02-11T05:11:56.692Z,29.86
2023-02-11T05:12:26.789Z,29.85
2023-02-11T05:12:56.846Z,29.81
2023-02-11T05:13:26.927Z,29.78
2023-02-11T05:13:57.008Z,29.83
2023-02-11T05:14:27.094Z,29.83
2023-02-11T05:14:57.212Z,29.86
2023-02-11T05:15:27.292Z,29.83
2023-02-11T05:15:57.389Z,29.84
2023-02-11T05:16:27.617Z,29.83
2023-02-11T05:16:57.575Z,29.81
2023-02-11T05:17:27.549Z,29.90
2023-02-11T05:17:57.618Z,29.98
2023-02-11T05:18:27.718Z,29.93
2023-02-11T05:18:57.806Z,29.93
2023-02-11T05:19:27.890Z,29.93
2023-02-11T05:19:57.998Z,30.02
2023-02-11T05:20:27.968Z,29.94
2023-02-11T05:20:58.073Z,30.02
2023-02-11T05:21:28.146Z,29.99
2023-02-11T05:22:02.915Z,29.97
2023-02-11T05:22:28.290Z,30.03
2023-02-11T05:22:58.371Z,29.96
2023-02-11T05:23:28.459Z,30.00
2023-02-11T05:23:58.536Z,29.94
2023-02-11T05:24:28.619Z,30.02
2023-02-11T05:24:58.696Z,30.04
2023-02-11T05:25:28.786Z,29.97
2023-02-11T05:25:58.877Z,29.94
2023-02-11T05:26:28.969Z,29.91
2023-02-11T05:26:58.962Z,29.97
2023-02-11T05:27:29.042Z,29.94
2023-02-11T05:27:59.155Z,29.96
2023-02-11T05:28:29.288Z,29.93
2023-02-11T05:28:59.244Z,29.92
2023-02-11T05:29:29.322Z,29.87
2023-02-11T05:29:59.413Z,29.88
2023-02-11T05:30:29.527Z,29.86
2023-02-11T05:30:59.609Z,29.83
2023-02-11T05:31:29.565Z,29.82
2023-02-11T05:31:59.642Z,29.80
2023-02-11T05:32:29.727Z,29.90
2023-02-11T05:32:59.814Z,29.89
2023-02-11T05:33:29.893Z,29.86
2023-02-11T05:33:59.968Z,29.83
2023-02-11T05:34:30.055Z,29.89
2023-02-11T05:35:00.171Z,29.86
2023-02-11T05:35:30.284Z,29.83
2023-02-11T05:36:00.240Z,29.79
2023-02-11T05:36:33.284Z,29.75
2023-02-11T05:37:00.580Z,29.79
2023-02-11T05:37:30.524Z,29.75
2023-02-11T05:38:00.500Z,29.77
2023-02-11T05:38:30.580Z,29.79
2023-02-11T05:39:00.658Z,29.80
2023-02-11T05:39:30.744Z,29.77
2023-02-11T05:40:00.826Z,29.80
2023-02-11T05:40:30.908Z,29.79
2023-02-11T05:41:00.983Z,29.82
2023-02-11T05:41:31.058Z,29.79
2023-02-11T05:42:01.137Z,29.76
2023-02-11T05:42:31.219Z,29.72
2023-02-11T05:43:01.325Z,29.71
2023-02-11T05:43:31.384Z,29.76
2023-02-11T05:44:01.466Z,29.74
2023-02-11T05:44:31.552Z,29.80
2023-02-11T05:45:01.634Z,29.76
2023-02-11T05:45:31.713Z,29.77
2023-02-11T05:46:01.852Z,29.76
2023-02-11T05:46:32.016Z,29.75
2023-02-11T05:47:01.980Z,29.74
2023-02-11T05:47:32.070Z,29.77
2023-02-11T05:48:02.149Z,29.80
2023-02-11T05:48:32.217Z,29.82
2023-02-11T05:49:02.322Z,29.82
2023-02-11T05:49:32.889Z,29.79
2023-02-11T05:50:02.500Z,29.80
2023-02-11T05:50:32.582Z,29.74
2023-02-11T05:51:02.671Z,29.79
2023-02-11T05:51:32.749Z,29.83
2023-02-11T05:52:02.836Z,29.80
2023-02-11T05:52:32.927Z,29.71
2023-02-11T05:53:02.947Z,29.76
2023-02-11T05:53:33.054Z,29.80
2023-02-11T05:54:03.138Z,29.77
2023-02-11T05:54:33.243Z,29.76
2023-02-11T05:55:03.320Z,29.76
2023-02-11T05:55:33.403Z,29.80
2023-02-11T05:56:03.487Z,29.80
2023-02-11T05:56:33.517Z,29.77
2023-02-11T05:57:03.566Z,29.81
2023-02-11T05:57:33.586Z,29.83
2023-02-11T05:58:03.633Z,29.85
2023-02-11T05:58:33.665Z,29.85
2023-02-11T05:59:03.701Z,29.83
2023-02-11T05:59:33.733Z,29.78
2023-02-11T06:00:03.765Z,29.80
2023-02-11T06:00:33.791Z,29.84
2023-02-11T06:01:03.831Z,29.78
2023-02-11T06:01:33.892Z,29.84
2023-02-11T06:02:03.932Z,29.86
2023-02-11T06:02:34.029Z,29.87
2023-02-11T06:03:04.051Z,29.84
2023-02-11T06:03:34.174Z,29.84
2023-02-11T06:04:04.210Z,29.82
2023-02-11T06:04:34.132Z,29.89
2023-02-11T06:05:04.160Z,29.84
2023-02-11T06:05:34.199Z,29.81
2023-02-11T06:06:04.264Z,29.80
2023-02-11T06:06:34.345Z,29.85
2023-02-11T06:07:04.428Z,29.80
2023-02-11T06:07:34.504Z,29.84
2023-02-11T06:08:04.584Z,29.80
2023-02-11T06:08:35.711Z,29.81
2023-02-11T06:09:04.745Z,29.80
2023-02-11T06:09:34.828Z,29.82
2023-02-11T06:10:04.907Z,29.85
2023-02-11T06:10:34.988Z,29.82
2023-02-11T06:11:05.076Z,29.89
2023-02-11T06:11:35.165Z,29.83
2023-02-11T06:12:05.243Z,29.80
2023-02-11T06:12:35.357Z,29.83
2023-02-11T06:13:05.336Z,29.81
2023-02-11T06:13:35.445Z,29.80
2023-02-11T06:14:05.491Z,29.80
2023-02-11T06:14:35.576Z,29.74
2023-02-11T06:15:05.657Z,29.74
2023-02-11T06:15:35.850Z,29.80
2023-02-11T06:16:06.058Z,29.76
2023-02-11T06:16:35.916Z,29.79
2023-02-11T06:17:05.992Z,29.74
2023-02-11T06:17:36.096Z,29.79
2023-02-11T06:18:06.167Z,29.80
2023-02-11T06:18:36.259Z,29.78
2023-02-11T06:19:06.326Z,29.79
2023-02-11T06:19:36.419Z,29.81
2023-02-11T06:20:06.417Z,29.81
2023-02-11T06:20:36.507Z,29.83
2023-02-11T06:21:06.597Z,29.88
2023-02-11T06:21:43.750Z,29.88
2023-02-11T06:22:06.737Z,29.87
2023-02-11T06:22:36.817Z,29.82
2023-02-11T06:23:06.894Z,29.84
2023-02-11T06:23:36.978Z,29.86
2023-02-11T06:24:07.059Z,29.86
2023-02-11T06:24:59.924Z,29.78
2023-02-11T06:25:07.217Z,29.83
2023-02-11T06:25:37.296Z,29.86
2023-02-11T06:26:07.402Z,29.83
2023-02-11T06:26:37.381Z,29.80
2023-02-11T06:27:07.469Z,29.80
2023-02-11T06:27:37.547Z,29.86